createdAt,value
2022-09-17T00:02:08.439Z,5.72
2022-09-17T00:04:34.933Z,5.18
2022-09-17T00:07:02.159Z,9.05
2022-09-17T00:09:28.965Z,8.70
2022-09-17T00:11:55.501Z,6.00
2022-09-17T00:14:21.882Z,6.65
2022-09-17T00:16:49.390Z,8.65
2022-09-17T00:19:17.468Z,8.10
2022-09-17T00:21:44.226Z,7.03
2022-09-17T00:24:11.508Z,10.13
2022-09-17T00:26:38.061Z,7.88
2022-09-17T00:29:05.153Z,6.68
2022-09-17T00:31:32.276Z,10.52
2022-09-17T00:34:00.014Z,5.82
2022-09-17T00:36:26.452Z,8.45
2022-09-17T00:38:57.101Z,7.00
2022-09-17T00:41:25.179Z,11.02
2022-09-17T00:43:58.754Z,9.13
2022-09-17T00:46:43.395Z,8.00
2022-09-17T00:49:22.228Z,9.02
2022-09-17T00:52:09.330Z,7.32
2022-09-17T00:54:37.127Z,6.78
2022-09-17T00:57:03.613Z,7.32
2022-09-17T00:59:30.019Z,8.25
2022-09-17T01:01:56.522Z,5.45
2022-09-17T01:04:25.105Z,8.40
2022-09-17T01:07:05.396Z,7.22
2022-09-17T01:09:34.844Z,10.18
2022-09-17T01:12:04.163Z,7.72
2022-09-17T01:14:42.761Z,7.03
2022-09-17T01:17:20.093Z,7.97
2022-09-17T01:19:46.707Z,11.50
2022-09-17T01:22:23.818Z,9.15
2022-09-17T01:25:09.104Z,7.53
2022-09-17T01:27:55.107Z,9.25
2022-09-17T01:30:54.870Z,6.65
2022-09-17T01:33:40.435Z,9.85
2022-09-17T01:36:29.698Z,10.38
2022-09-17T01:39:05.539Z,9.52
2022-09-17T01:41:32.278Z,8.15
2022-09-17T01:44:03.942Z,10.73
2022-09-17T01:46:32.429Z,8.80
2022-09-17T01:49:00.784Z,9.52
2022-09-17T01:51:29.539Z,10.57
2022-09-17T01:54:04.782Z,9.15
2022-09-17T01:56:33.467Z,7.38
2022-09-17T01:59:02.792Z,10.63
2022-09-17T02:01:31.206Z,7.93
2022-09-17T02:04:09.803Z,9.32
2022-09-17T02:06:38.177Z,7.07
2022-09-17T02:09:16.873Z,10.27
2022-09-17T02:11:45.409Z,9.55
2022-09-17T02:14:15.230Z,9.05
2022-09-17T02:16:46.484Z,8.63
2022-09-17T02:19:18.497Z,11.45
2022-09-17T02:21:54.390Z,8.77
2022-09-17T02:24:25.388Z,9.27
2022-09-17T02:27:01.235Z,6.90
2022-09-17T02:29:38.816Z,14.07
2022-09-17T02:32:05.545Z,11.80
2022-09-17T02:34:32.089Z,16.92
2022-09-17T02:36:59.447Z,10.45
2022-09-17T02:39:26.241Z,10.02
2022-09-17T02:41:55.689Z,11.95
2022-09-17T02:44:30.861Z,10.00
2022-09-17T02:47:15.950Z,11.07
2022-09-17T02:49:50.101Z,8.65
2022-09-17T02:52:47.445Z,11.50
2022-09-17T02:55:24.650Z,11.63
2022-09-17T02:58:00.428Z,11.38
2022-09-17T03:00:28.490Z,7.57
2022-09-17T03:03:01.013Z,12.35
2022-09-17T03:05:28.787Z,9.27
2022-09-17T03:07:57.160Z,11.48
2022-09-17T03:10:23.762Z,7.88
2022-09-17T03:12:51.533Z,9.88
2022-09-17T03:15:18.005Z,11.50
2022-09-17T03:17:44.583Z,8.70
2022-09-17T03:20:12.277Z,7.10
2022-09-17T03:22:38.678Z,8.30
2022-09-17T03:25:05.263Z,9.15
2022-09-17T03:27:31.723Z,10.18
2022-09-17T03:29:58.677Z,7.70
2022-09-17T03:32:25.321Z,10.27
2022-09-17T03:34:51.901Z,12.88
2022-09-17T03:37:18.346Z,12.15
2022-09-17T03:39:44.805Z,6.90
2022-09-17T03:42:11.483Z,12.95
2022-09-17T03:44:40.451Z,6.68
2022-09-17T03:47:09.940Z,14.23
2022-09-17T03:49:36.303Z,8.90
2022-09-17T03:52:02.821Z,9.30
2022-09-17T03:54:29.339Z,10.40
2022-09-17T03:56:56.020Z,7.43
2022-09-17T03:59:23.117Z,10.50
2022-09-17T04:01:49.709Z,9.57
2022-09-17T04:04:16.282Z,11.75
2022-09-17T04:06:42.734Z,9.60
2022-09-17T04:09:09.178Z,8.50
2022-09-17T04:11:35.648Z,9.18
2022-09-17T04:14:02.231Z,7.80
2022-09-17T04:16:28.687Z,9.77
2022-09-17T04:18:55.303Z,7.28
2022-09-17T04:21:21.737Z,11.90
2022-09-17T04:23:48.107Z,11.05
2022-09-17T04:26:14.619Z,11.27
2022-09-17T04:28:41.111Z,13.00
2022-09-17T04:31:07.704Z,9.82
2022-09-17T04:33:34.559Z,9.77
2022-09-17T04:36:00.936Z,12.38
2022-09-17T04:38:28.837Z,10.77
2022-09-17T04:40:57.312Z,12.27
2022-09-17T04:43:23.699Z,9.93
2022-09-17T04:45:50.750Z,8.93
2022-09-17T04:48:18.073Z,5.40
2022-09-17T04:50:44.498Z,9.20
2022-09-17T04:53:10.894Z,8.52
2022-09-17T04:55:37.512Z,8.90
2022-09-17T04:58:04.624Z,11.70
2022-09-17T05:00:31.334Z,7.82
2022-09-17T05:02:57.689Z,9.05
2022-09-17T05:05:24.568Z,12.30
2022-09-17T05:07:51.068Z,10.77
2022-09-17T05:10:18.470Z,8.48
2022-09-17T05:13:03.267Z,15.77
2022-09-17T05:15:29.774Z,11.57
2022-09-17T05:17:56.373Z,7.68
2022-09-17T05:20:22.888Z,11.27
2022-09-17T05:22:54.343Z,10.07
2022-09-17T05:25:24.598Z,11.88
2022-09-17T05:27:52.355Z,18.95
2022-09-17T05:30:19.106Z,12.25
2022-09-17T05:32:45.513Z,9.88
2022-09-17T05:35:12.053Z,9.95
2022-09-17T05:37:38.593Z,11.80
2022-09-17T05:40:07.209Z,14.95
2022-09-17T05:42:34.097Z,9.75
2022-09-17T05:45:00.677Z,13.48
2022-09-17T05:47:27.344Z,12.23
2022-09-17T05:49:53.830Z,14.13
2022-09-17T05:52:20.643Z,14.45
2022-09-17T05:54:47.305Z,12.02
2022-09-17T05:57:13.733Z,14.90
2022-09-17T05:59:40.724Z,12.15
2022-09-17T06:02:07.142Z,18.65
2022-09-17T06:04:35.048Z,15.75
2022-09-17T06:07:04.270Z,19.10
2022-09-17T06:09:31.181Z,14.13
2022-09-17T06:11:57.565Z,18.95
2022-09-17T06:14:23.980Z,15.13
2022-09-17T06:16:50.427Z,15.52
2022-09-17T06:19:16.722Z,22.23
2022-09-17T06:21:43.904Z,17.38
2022-09-17T06:24:10.482Z,15.00
2022-09-17T06:26:37.345Z,20.83
2022-09-17T06:29:03.656Z,22.23
2022-09-17T06:31:30.151Z,15.48
2022-09-17T06:33:58.562Z,18.45
2022-09-17T06:36:25.200Z,15.95
2022-09-17T06:38:51.607Z,19.48
2022-09-17T06:41:18.148Z,17.80
2022-09-17T06:43:45.113Z,17.50
2022-09-17T06:46:11.551Z,19.10
2022-09-17T06:48:38.723Z,15.23
2022-09-17T06:51:06.574Z,12.25
2022-09-17T06:53:36.678Z,11.95
2022-09-17T06:56:06.648Z,18.48
2022-09-17T06:58:33.930Z,20.90
2022-09-17T07:01:02.387Z,15.65
2022-09-17T07:03:31.017Z,20.63
2022-09-17T07:05:58.083Z,17.15
2022-09-17T07:08:25.958Z,17.20
2022-09-17T07:10:56.143Z,15.45
2022-09-17T07:13:22.676Z,14.40
2022-09-17T07:16:00.381Z,15.60
2022-09-17T07:18:27.417Z,11.25
2022-09-17T07:20:55.126Z,14.68
2022-09-17T07:23:25.335Z,13.88
2022-09-17T07:25:55.895Z,14.43
2022-09-17T07:28:22.907Z,11.85
2022-09-17T07:30:50.196Z,16.70
2022-09-17T07:33:17.901Z,14.00
2022-09-17T07:35:52.021Z,17.40
2022-09-17T07:38:18.695Z,12.15
2022-09-17T07:40:45.062Z,15.20
2022-09-17T07:43:11.459Z,12.80
2022-09-17T07:45:38.053Z,13.63
2022-09-17T07:48:04.473Z,12.57
2022-09-17T07:50:31.812Z,14.32
2022-09-17T07:52:58.162Z,15.50
2022-09-17T07:55:24.658Z,16.40
2022-09-17T07:57:54.203Z,9.60
2022-09-17T08:00:20.679Z,13.43
2022-09-17T08:02:52.840Z,15.40
2022-09-17T08:05:26.155Z,12.38
2022-09-17T08:07:53.312Z,13.18
2022-09-17T08:10:23.078Z,15.13
2022-09-17T08:12:50.118Z,13.30
2022-09-17T08:15:18.238Z,13.15
2022-09-17T08:17:45.333Z,13.98
2022-09-17T08:20:12.354Z,14.60
2022-09-17T08:22:38.879Z,8.80
2022-09-17T08:25:06.155Z,11.60
2022-09-17T08:27:32.782Z,12.18
2022-09-17T08:29:59.247Z,9.57
2022-09-17T08:32:25.910Z,12.25
2022-09-17T08:34:57.991Z,12.05
2022-09-17T08:37:24.735Z,12.40
2022-09-17T08:39:51.087Z,14.65
2022-09-17T08:42:23.959Z,11.10
2022-09-17T08:44:52.356Z,11.95
2022-09-17T08:47:31.037Z,10.85
2022-09-17T08:49:58.482Z,10.13
2022-09-17T08:52:41.902Z,11.80
2022-09-17T08:55:26.635Z,12.05
2022-09-17T08:58:12.520Z,9.18
2022-09-17T09:00:47.029Z,15.30
2022-09-17T09:03:22.317Z,9.88
2022-09-17T09:05:50.244Z,10.30
2022-09-17T09:08:28.661Z,14.18
2022-09-17T09:10:56.468Z,14.40
2022-09-17T09:13:24.425Z,9.73
2022-09-17T09:15:56.844Z,9.35
2022-09-17T09:18:25.880Z,11.77
2022-09-17T09:20:55.570Z,10.85
2022-09-17T09:23:29.669Z,13.93
2022-09-17T09:26:03.493Z,12.60
2022-09-17T09:28:33.267Z,11.43
2022-09-17T09:31:08.045Z,10.68
2022-09-17T09:33:39.260Z,11.57
2022-09-17T09:36:07.525Z,13.55
2022-09-17T09:38:35.731Z,11.00
2022-09-17T09:41:16.145Z,9.95
2022-09-17T09:44:03.266Z,7.00
2022-09-17T09:46:35.178Z,10.00
2022-09-17T09:49:28.184Z,8.73
2022-09-17T09:52:23.623Z,10.48
2022-09-17T09:55:16.075Z,9.32
2022-09-17T09:57:45.562Z,10.90
2022-09-17T10:00:32.690Z,9.75
2022-09-17T10:03:11.178Z,10.80
2022-09-17T10:05:37.900Z,5.75
2022-09-17T10:08:11.733Z,12.20
2022-09-17T10:10:53.151Z,11.05
2022-09-17T10:13:20.048Z,12.25
2022-09-17T10:15:46.807Z,10.75
2022-09-17T10:18:16.405Z,10.02
2022-09-17T10:20:50.164Z,8.00
2022-09-17T10:23:16.752Z,9.88
2022-09-17T10:25:43.745Z,9.77
2022-09-17T10:28:31.109Z,8.90
2022-09-17T10:30:58.758Z,10.80
2022-09-17T10:33:29.429Z,8.07
2022-09-17T10:36:10.163Z,9.98
2022-09-17T10:38:40.466Z,9.40
2022-09-17T10:41:10.393Z,11.32
2022-09-17T10:43:36.864Z,6.80
2022-09-17T10:46:03.624Z,10.18
2022-09-17T10:48:36.888Z,11.23
2022-09-17T10:51:03.447Z,11.25
2022-09-17T10:53:29.908Z,9.02
2022-09-17T10:55:56.248Z,9.90
2022-09-17T10:58:55.273Z,10.25
2022-09-17T11:01:22.632Z,10.65
2022-09-17T11:03:49.215Z,9.60
2022-09-17T11:06:22.058Z,8.13
2022-09-17T11:08:57.435Z,9.70
2022-09-17T11:11:36.537Z,10.23
2022-09-17T11:14:12.582Z,8.98
2022-09-17T11:16:38.995Z,7.55
2022-09-17T11:19:14.778Z,6.53
2022-09-17T11:22:00.454Z,10.90
2022-09-17T11:24:36.490Z,9.25
2022-09-17T11:27:22.174Z,7.43
2022-09-17T11:30:03.839Z,8.43
2022-09-17T11:32:33.688Z,5.63
2022-09-17T11:35:02.612Z,6.93
2022-09-17T11:37:33.736Z,8.00
2022-09-17T11:40:06.716Z,8.02
2022-09-17T11:42:42.007Z,8.40
2022-09-17T11:45:26.752Z,4.88
2022-09-17T11:47:58.273Z,5.78
2022-09-17T11:50:40.811Z,6.05
2022-09-17T11:53:30.600Z,6.53
2022-09-17T11:55:59.096Z,6.47
2022-09-17T11:58:44.764Z,6.88
2022-09-17T12:01:13.736Z,4.68
2022-09-17T12:04:03.330Z,6.18
2022-09-17T12:06:38.188Z,3.90
2022-09-17T12:09:15.788Z,5.85
2022-09-17T12:11:42.161Z,7.03
2022-09-17T12:14:29.816Z,7.53
2022-09-17T12:17:00.420Z,6.07
2022-09-17T12:19:32.522Z,5.85
2022-09-17T12:22:02.279Z,5.93
2022-09-17T12:24:30.074Z,6.53
2022-09-17T12:27:04.427Z,6.22
2022-09-17T12:29:44.400Z,5.88
2022-09-17T12:32:23.302Z,7.82
2022-09-17T12:34:57.312Z,8.32
2022-09-17T12:37:26.872Z,5.80
2022-09-17T12:40:15.360Z,6.13
2022-09-17T12:43:00.811Z,5.07
2022-09-17T12:45:40.227Z,6.13
2022-09-17T12:48:25.515Z,5.50
2022-09-17T12:50:59.289Z,7.18
2022-09-17T12:53:30.252Z,5.57
2022-09-17T12:56:35.391Z,6.70
2022-09-17T12:59:04.398Z,7.63
2022-09-17T13:01:51.288Z,6.65
2022-09-17T13:04:33.644Z,7.10
2022-09-17T13:07:15.980Z,4.20
2022-09-17T13:09:42.481Z,4.60
2022-09-17T13:12:19.107Z,3.97
2022-09-17T13:14:51.818Z,5.10
2022-09-17T13:17:23.730Z,5.57
2022-09-17T13:19:58.881Z,4.53
2022-09-17T13:22:27.693Z,4.40
2022-09-17T13:25:03.382Z,4.40
2022-09-17T13:27:29.876Z,4.97
2022-09-17T13:29:56.604Z,3.65
2022-09-17T13:32:32.424Z,5.05
2022-09-17T13:35:11.373Z,3.15
2022-09-17T13:37:38.837Z,5.32
2022-09-17T13:40:07.112Z,5.15
2022-09-17T13:42:45.220Z,6.95
2022-09-17T13:45:16.171Z,6.07
2022-09-17T13:47:50.742Z,5.65
2022-09-17T13:50:29.729Z,5.47
2022-09-17T13:52:58.091Z,5.93
2022-09-17T13:55:35.376Z,5.95
2022-09-17T13:58:12.811Z,10.02
2022-09-17T14:00:56.409Z,6.00
2022-09-17T14:03:30.782Z,5.00
2022-09-17T14:06:06.395Z,7.43
2022-09-17T14:08:45.394Z,6.43
2022-09-17T14:11:21.230Z,6.70
2022-09-17T14:13:48.999Z,8.43
2022-09-17T14:16:25.174Z,6.60
2022-09-17T14:19:10.535Z,7.75
2022-09-17T14:21:37.916Z,6.50
2022-09-17T14:24:18.106Z,8.00
2022-09-17T14:27:03.110Z,9.35
2022-09-17T14:29:41.251Z,8.40
2022-09-17T14:32:10.098Z,9.45
2022-09-17T14:34:36.663Z,9.02
2022-09-17T14:37:03.243Z,7.57
2022-09-17T14:39:36.307Z,6.13
2022-09-17T14:42:04.765Z,6.93
2022-09-17T14:44:33.173Z,5.28
2022-09-17T14:47:04.244Z,4.32
2022-09-17T14:49:34.826Z,3.25
2022-09-17T14:52:05.454Z,2.10
2022-09-17T14:54:36.317Z,2.45
2022-09-17T14:57:09.367Z,4.50
2022-09-17T14:59:52.933Z,3.53
2022-09-17T15:02:37.081Z,2.00
2022-09-17T15:05:22.569Z,3.22
2022-09-17T15:07:49.020Z,5.22
2022-09-17T15:10:17.624Z,1.58
2022-09-17T15:12:45.103Z,3.40
2022-09-17T15:15:16.428Z,4.88
2022-09-17T15:17:43.425Z,5.57
2022-09-17T15:20:15.452Z,4.95
2022-09-17T15:22:42.849Z,3.15
2022-09-17T15:25:18.499Z,4.97
2022-09-17T15:27:45.943Z,4.40
2022-09-17T15:30:38.679Z,1.58
2022-09-17T15:33:11.903Z,2.03
2022-09-17T15:35:39.546Z,5.22
2022-09-17T15:38:26.100Z,4.60
2022-09-17T15:40:52.766Z,5.28
2022-09-17T15:43:27.419Z,2.50
2022-09-17T15:45:54.426Z,4.22
2022-09-17T15:48:30.163Z,2.15
2022-09-17T15:51:00.590Z,6.47
2022-09-17T15:53:28.506Z,1.48
2022-09-17T15:56:08.257Z,4.22
2022-09-17T15:58:52.250Z,2.58
2022-09-17T16:01:19.817Z,1.92
2022-09-17T16:03:46.422Z,4.78
2022-09-17T16:06:18.945Z,2.25
2022-09-17T16:08:47.432Z,5.45
2022-09-17T16:11:14.274Z,3.22
2022-09-17T16:13:40.790Z,3.33
2022-09-17T16:16:07.458Z,2.72
2022-09-17T16:18:33.879Z,5.53
2022-09-17T16:21:00.252Z,3.25
2022-09-17T16:23:27.430Z,3.10
2022-09-17T16:25:53.832Z,2.85
2022-09-17T16:28:20.478Z,2.78
2022-09-17T16:30:48.348Z,4.38
2022-09-17T16:33:15.905Z,3.90
2022-09-17T16:35:42.777Z,2.53
2022-09-17T16:38:09.766Z,2.65
2022-09-17T16:40:40.206Z,3.08
2022-09-17T16:43:06.789Z,4.45
2022-09-17T16:45:33.230Z,3.35
2022-09-17T16:47:59.854Z,3.72
2022-09-17T16:50:26.489Z,6.28
2022-09-17T16:52:53.575Z,4.97
2022-09-17T16:55:20.570Z,3.78
2022-09-17T16:57:47.621Z,3.92
2022-09-17T17:00:19.482Z,4.53
2022-09-17T17:02:51.563Z,5.85
2022-09-17T17:05:18.486Z,3.28
2022-09-17T17:07:44.945Z,3.00
2022-09-17T17:10:11.260Z,4.05
2022-09-17T17:12:38.187Z,4.82
2022-09-17T17:15:06.514Z,4.95
2022-09-17T17:17:35.343Z,2.92
2022-09-17T17:20:09.591Z,3.22
2022-09-17T17:22:39.685Z,2.55
2022-09-17T17:25:06.900Z,4.70
2022-09-17T17:27:33.988Z,3.28
2022-09-17T17:30:02.372Z,2.83
2022-09-17T17:32:28.872Z,2.97
2022-09-17T17:34:55.394Z,3.03
2022-09-17T17:37:23.262Z,3.08
2022-09-17T17:39:49.921Z,4.65
2022-09-17T17:42:16.270Z,2.95
2022-09-17T17:44:42.658Z,5.32
2022-09-17T17:47:08.988Z,2.97
2022-09-17T17:49:35.415Z,3.72
2022-09-17T17:52:02.369Z,5.28
2022-09-17T17:54:29.092Z,4.22
2022-09-17T17:56:55.890Z,4.65
2022-09-17T17:59:22.300Z,3.63
2022-09-17T18:01:48.797Z,4.95
2022-09-17T18:04:15.317Z,5.20
2022-09-17T18:06:42.723Z,12.90
2022-09-17T18:09:09.450Z,4.93
2022-09-17T18:11:36.218Z,3.50
2022-09-17T18:14:03.170Z,4.70
2022-09-17T18:16:29.890Z,3.13
2022-09-17T18:19:00.048Z,4.00
2022-09-17T18:23:54.205Z,5.20
2022-09-17T18:26:22.486Z,3.42
2022-09-17T18:28:49.482Z,2.30
2022-09-17T18:31:16.129Z,1.70
2022-09-17T18:33:42.736Z,1.50
2022-09-17T18:36:09.693Z,1.45
2022-09-17T18:38:39.470Z,1.13
2022-09-17T18:41:07.114Z,2.70
2022-09-17T18:43:34.150Z,1.60
2022-09-17T18:46:01.077Z,1.55
2022-09-17T18:48:28.011Z,0.98
2022-09-17T18:50:55.639Z,1.00
2022-09-17T18:53:22.053Z,0.75
2022-09-17T18:55:48.439Z,0.45
2022-09-17T18:58:14.907Z,0.30
2022-09-17T19:00:41.737Z,0.35
2022-09-17T19:03:08.204Z,0.93
2022-09-17T19:05:34.623Z,0.52
2022-09-17T19:08:02.238Z,0.30
2022-09-17T19:10:30.393Z,0.40
2022-09-17T19:12:56.756Z,0.40
2022-09-17T19:15:24.138Z,0.30
2022-09-17T19:17:50.660Z,0.47
2022-09-17T19:20:19.564Z,0.52
2022-09-17T19:22:46.204Z,0.30
2022-09-17T19:25:12.629Z,0.20
2022-09-17T19:27:39.348Z,0.85
2022-09-17T19:30:06.027Z,0.35
2022-09-17T19:32:32.936Z,0.20
2022-09-17T19:35:00.775Z,0.85
2022-09-17T19:37:27.351Z,0.20
2022-09-17T19:39:53.730Z,0.20
2022-09-17T19:42:20.512Z,0.30
2022-09-17T19:44:46.886Z,0.20
2022-09-17T19:47:13.278Z,0.30
2022-09-17T19:49:39.956Z,0.25
2022-09-17T19:52:06.349Z,0.25
2022-09-17T19:54:32.813Z,0.25
2022-09-17T19:56:59.114Z,0.20
2022-09-17T19:59:25.603Z,0.20
2022-09-17T20:01:51.978Z,0.20
2022-09-17T20:04:18.404Z,0.20
2022-09-17T20:06:44.877Z,0.40
2022-09-17T20:09:11.250Z,0.45
2022-09-17T20:11:39.138Z,0.20
2022-09-17T20:14:07.115Z,0.20
2022-09-17T20:16:35.351Z,0.28
2022-09-17T20:19:02.298Z,0.55
2022-09-17T20:21:29.634Z,0.40
2022-09-17T20:23:56.874Z,2.00
2022-09-17T20:26:23.309Z,0.43
2022-09-17T20:28:50.411Z,0.20
2022-09-17T20:31:21.454Z,0.35
2022-09-17T20:33:48.149Z,0.55
2022-09-17T20:36:15.580Z,0.57
2022-09-17T20:39:10.597Z,0.30
2022-09-17T20:41:29.025Z,0.30
2022-09-17T20:43:55.651Z,0.30
2022-09-17T20:46:27.657Z,0.55
2022-09-17T20:48:54.511Z,0.30
2022-09-17T20:51:22.335Z,0.20
2022-09-17T20:53:49.164Z,0.32
2022-09-17T20:56:17.001Z,0.25
2022-09-17T20:58:53.471Z,0.30
2022-09-17T21:01:21.872Z,0.30
2022-09-17T21:03:50.193Z,0.22
2022-09-17T21:06:23.678Z,0.60
2022-09-17T21:08:50.713Z,0.20
2022-09-17T21:11:17.563Z,0.30
2022-09-17T21:13:44.637Z,0.30
2022-09-17T21:16:11.449Z,0.28
2022-09-17T21:18:39.855Z,0.20
2022-09-17T21:21:08.027Z,0.50
2022-09-17T21:23:35.669Z,0.70
2022-09-17T21:26:06.538Z,0.30
2022-09-17T21:28:33.557Z,0.20
2022-09-17T21:31:17.266Z,0.90
2022-09-17T21:33:44.755Z,0.70
2022-09-17T21:36:12.818Z,0.30
2022-09-17T21:38:39.198Z,0.30
2022-09-17T21:41:08.137Z,0.28
2022-09-17T21:43:35.126Z,0.20
2022-09-17T21:46:02.887Z,0.30
2022-09-17T21:48:30.577Z,0.10
2022-09-17T21:51:03.702Z,0.20
2022-09-17T21:53:32.593Z,0.25
2022-09-17T21:56:10.485Z,0.50
2022-09-17T21:58:37.208Z,0.30
2022-09-17T22:01:24.008Z,0.75
2022-09-17T22:03:50.742Z,0.30
2022-09-17T22:06:18.113Z,0.20
2022-09-17T22:08:45.229Z,0.22
2022-09-17T22:11:12.983Z,0.30
2022-09-17T22:13:39.730Z,0.20
2022-09-17T22:16:07.172Z,0.30
2022-09-17T22:18:35.488Z,0.20
2022-09-17T22:21:11.889Z,0.10
2022-09-17T22:23:38.223Z,0.30
2022-09-17T22:26:05.430Z,0.20
2022-09-17T22:28:31.934Z,0.20
2022-09-17T22:31:01.202Z,1.42
2022-09-17T22:33:30.786Z,0.63
2022-09-17T22:36:07.566Z,0.20
2022-09-17T22:38:34.216Z,0.22
2022-09-17T22:41:15.105Z,0.43
2022-09-17T22:43:41.579Z,0.20
2022-09-17T22:46:12.875Z,0.20
2022-09-17T22:48:40.185Z,0.20
2022-09-17T22:51:06.897Z,0.20
2022-09-17T22:53:33.542Z,0.75
2022-09-17T22:56:01.463Z,0.40
2022-09-17T22:58:28.019Z,0.40
2022-09-17T23:00:54.822Z,0.30
2022-09-17T23:03:21.661Z,0.20
2022-09-17T23:05:48.199Z,0.25
2022-09-17T23:08:14.847Z,0.55
2022-09-17T23:10:41.984Z,0.15
2022-09-17T23:13:09.500Z,0.20
2022-09-17T23:15:36.772Z,0.20
2022-09-17T23:18:04.722Z,0.20
2022-09-17T23:20:31.883Z,0.65
2022-09-17T23:22:59.685Z,0.20
2022-09-17T23:25:27.278Z,0.20
2022-09-17T23:27:54.397Z,0.40
2022-09-17T23:30:20.784Z,0.30
2022-09-17T23:32:47.213Z,0.20
2022-09-17T23:35:13.591Z,0.43
2022-09-17T23:37:39.963Z,0.20
2022-09-17T23:40:07.424Z,0.22
2022-09-17T23:42:36.732Z,0.40
2022-09-17T23:45:03.233Z,0.38
2022-09-17T23:47:29.609Z,0.60
2022-09-17T23:49:56.004Z,0.38
2022-09-17T23:55:15.818Z,0.20
2022-09-17T23:57:42.334Z,0.20
